sensor_id;sensor_type;location;lat;lon;timestamp;pressure;altitude;pressure_sealevel;temperature;humidity
36284;BME280;56085;48.910;9.478;2023-03-26T00:00:56;97670.41;;;6.55;78.44
36284;BME280;56085;48.910;9.478;2023-03-26T00:03:21;97671.00;;;6.49;78.50
36284;BME280;56085;48.910;9.478;2023-03-26T00:05:47;97672.50;;;6.46;78.70
36284;BME280;56085;48.910;9.478;2023-03-26T00:08:12;97664.16;;;6.42;79.31
36284;BME280;56085;48.910;9.478;2023-03-26T00:10:39;97667.16;;;6.37;79.16
36284;BME280;56085;48.910;9.478;2023-03-26T00:13:05;97670.59;;;6.34;78.86
36284;BME280;56085;48.910;9.478;2023-03-26T00:15:31;97667.88;;;6.34;79.80
36284;BME280;56085;48.910;9.478;2023-03-26T00:17:56;97667.50;;;6.36;79.01
36284;BME280;56085;48.910;9.478;2023-03-26T00:20:22;97669.78;;;6.34;78.89
36284;BME280;56085;48.910;9.478;2023-03-26T00:22:47;97669.78;;;6.34;79.06
36284;BME280;56085;48.910;9.478;2023-03-26T00:25:14;97667.50;;;6.36;79.12
36284;BME280;56085;48.910;9.478;2023-03-26T00:27:40;97667.16;;;6.37;79.29
36284;BME280;56085;48.910;9.478;2023-03-26T00:30:05;97668.41;;;6.40;79.00
36284;BME280;56085;48.910;9.478;2023-03-26T00:32:31;97663.47;;;6.45;79.09
36284;BME280;56085;48.910;9.478;2023-03-26T00:34:56;97671.00;;;6.49;79.00
36284;BME280;56085;48.910;9.478;2023-03-26T00:37:22;97671.38;;;6.47;78.44
36284;BME280;56085;48.910;9.478;2023-03-26T00:39:53;97678.91;;;6.50;78.90
36284;BME280;56085;48.910;9.478;2023-03-26T00:42:23;97671.56;;;6.54;78.24
36284;BME280;56085;48.910;9.478;2023-03-26T00:44:49;97667.22;;;6.53;77.88
36284;BME280;56085;48.910;9.478;2023-03-26T00:47:18;97673.16;;;6.55;78.17
36284;BME280;56085;48.910;9.478;2023-03-26T00:49:44;97670.50;;;6.59;78.38
36284;BME280;56085;48.910;9.478;2023-03-26T00:52:10;97665.81;;;6.59;77.47
36284;BME280;56085;48.910;9.478;2023-03-26T00:54:36;97656.44;;;6.60;77.70
36284;BME280;56085;48.910;9.478;2023-03-26T00:57:01;97656.50;;;6.64;77.14
36284;BME280;56085;48.910;9.478;2023-03-26T00:59:30;97646.22;;;6.61;77.23
36284;BME280;56085;48.910;9.478;2023-03-26T01:01:55;97641.09;;;6.59;77.22
36284;BME280;56085;48.910;9.478;2023-03-26T01:04:29;97649.78;;;6.61;77.34
36284;BME280;56085;48.910;9.478;2023-03-26T01:06:56;97639.25;;;6.63;76.85
36284;BME280;56085;48.910;9.478;2023-03-26T01:09:24;97636.50;;;6.63;76.63
36284;BME280;56085;48.910;9.478;2023-03-26T01:11:51;97636.50;;;6.63;77.04
36284;BME280;56085;48.910;9.478;2023-03-26T01:14:18;97626.28;;;6.64;77.07
36284;BME280;56085;48.910;9.478;2023-03-26T01:16:51;97625.06;;;6.61;76.98
36284;BME280;56085;48.910;9.478;2023-03-26T01:19:23;97616.38;;;6.59;76.72
36284;BME280;56085;48.910;9.478;2023-03-26T01:21:49;97609.72;;;6.60;76.96
36284;BME280;56085;48.910;9.478;2023-03-26T01:24:15;97612.47;;;6.60;77.13
36284;BME280;56085;48.910;9.478;2023-03-26T01:26:43;97605.84;;;6.61;77.03
36284;BME280;56085;48.910;9.478;2023-03-26T01:35:37;97596.06;;;6.64;77.21
36284;BME280;56085;48.910;9.478;2023-03-26T01:37:49;97598.59;;;6.69;76.38
36284;BME280;56085;48.910;9.478;2023-03-26T01:40:38;97587.94;;;6.68;76.51
36284;BME280;56085;48.910;9.478;2023-03-26T01:45:40;97587.13;;;6.67;76.54
36284;BME280;56085;48.910;9.478;2023-03-26T01:48:06;97580.06;;;6.66;76.23
36284;BME280;56085;48.910;9.478;2023-03-26T01:50:31;97576.06;;;6.63;76.57
36284;BME280;56085;48.910;9.478;2023-03-26T01:52:57;97572.59;;;6.67;76.61
36284;BME280;56085;48.910;9.478;2023-03-26T01:55:24;97575.00;;;6.68;76.69
36284;BME280;56085;48.910;9.478;2023-03-26T02:00:35;97568.53;;;6.76;76.20
36284;BME280;56085;48.910;9.478;2023-03-26T02:03:10;97568.19;;;6.78;76.29
36284;BME280;56085;48.910;9.478;2023-03-26T02:05:49;97561.09;;;6.77;75.63
36284;BME280;56085;48.910;9.478;2023-03-26T02:08:22;97556.84;;;6.79;76.07
36284;BME280;56085;48.910;9.478;2023-03-26T02:10:54;97542.75;;;6.81;75.84
36284;BME280;56085;48.910;9.478;2023-03-26T02:13:21;97534.50;;;6.81;75.98
36284;BME280;56085;48.910;9.478;2023-03-26T02:15:53;97540.53;;;6.87;75.76
36284;BME280;56085;48.910;9.478;2023-03-26T02:18:19;97529.19;;;6.88;75.94
36284;BME280;56085;48.910;9.478;2023-03-26T02:20:48;97523.75;;;6.92;75.05
36284;BME280;56085;48.910;9.478;2023-03-26T02:23:13;97518.63;;;6.90;75.59
36284;BME280;56085;48.910;9.478;2023-03-26T02:25:39;97513.59;;;6.92;75.44
36284;BME280;56085;48.910;9.478;2023-03-26T02:28:05;97510.50;;;6.94;74.85
36284;BME280;56085;48.910;9.478;2023-03-26T02:30:31;97505.41;;;6.96;75.05
36284;BME280;56085;48.910;9.478;2023-03-26T02:32:57;97493.34;;;7.01;74.76
36284;BME280;56085;48.910;9.478;2023-03-26T02:35:23;97494.94;;;7.02;74.67
36284;BME280;56085;48.910;9.478;2023-03-26T02:37:49;97491.84;;;7.03;74.52
36284;BME280;56085;48.910;9.478;2023-03-26T02:40:15;97500.19;;;7.07;73.79
36284;BME280;56085;48.910;9.478;2023-03-26T02:42:41;97501.41;;;7.09;73.99
36284;BME280;56085;48.910;9.478;2023-03-26T02:45:06;97490.78;;;7.08;73.62
36284;BME280;56085;48.910;9.478;2023-03-26T02:47:31;97486.44;;;7.07;73.37
36284;BME280;56085;48.910;9.478;2023-03-26T02:49:57;97483.34;;;7.08;73.61
36284;BME280;56085;48.910;9.478;2023-03-26T02:52:22;97473.91;;;7.09;73.17
36284;BME280;56085;48.910;9.478;2023-03-26T02:54:48;97477.13;;;7.11;73.17
36284;BME280;56085;48.910;9.478;2023-03-26T02:57:13;97470.81;;;7.11;73.05
36284;BME280;56085;48.910;9.478;2023-03-26T02:59:38;97470.44;;;7.12;73.32
36284;BME280;56085;48.910;9.478;2023-03-26T03:02:03;97480.94;;;7.07;73.35
36284;BME280;56085;48.910;9.478;2023-03-26T03:04:29;97477.03;;;7.08;73.67
36284;BME280;56085;48.910;9.478;2023-03-26T03:06:54;97478.19;;;7.07;73.36
36284;BME280;56085;48.910;9.478;2023-03-26T03:09:22;97449.84;;;7.03;73.43
36284;BME280;56085;48.910;9.478;2023-03-26T03:11:47;97455.75;;;7.05;73.49
36284;BME280;56085;48.910;9.478;2023-03-26T03:14:12;97453.47;;;7.07;73.13
36284;BME280;56085;48.910;9.478;2023-03-26T03:16:37;97447.25;;;7.10;73.22
36284;BME280;56085;48.910;9.478;2023-03-26T03:19:02;97455.13;;;7.11;73.77
36284;BME280;56085;48.910;9.478;2023-03-26T03:21:30;97450.41;;;7.12;73.84
36284;BME280;56085;48.910;9.478;2023-03-26T03:23:55;97441.38;;;7.11;73.57
36284;BME280;56085;48.910;9.478;2023-03-26T03:26:21;97437.91;;;7.14;73.18
36284;BME280;56085;48.910;9.478;2023-03-26T03:28:50;97432.41;;;7.14;73.52
36284;BME280;56085;48.910;9.478;2023-03-26T03:31:16;97435.59;;;7.16;73.07
36284;BME280;56085;48.910;9.478;2023-03-26T03:33:42;97425.84;;;7.19;73.20
36284;BME280;56085;48.910;9.478;2023-03-26T03:36:10;97428.16;;;7.17;73.61
36284;BME280;56085;48.910;9.478;2023-03-26T03:38:36;97429.66;;;7.14;72.63
36284;BME280;56085;48.910;9.478;2023-03-26T03:41:01;97418.72;;;7.18;73.16
36284;BME280;56085;48.910;9.478;2023-03-26T03:43:26;97415.97;;;7.18;72.81
36284;BME280;56085;48.910;9.478;2023-03-26T03:45:52;97416.44;;;7.20;72.89
36284;BME280;56085;48.910;9.478;2023-03-26T03:48:17;97411.00;;;7.24;72.67
36284;BME280;56085;48.910;9.478;2023-03-26T03:50:43;97402.84;;;7.27;72.72
36284;BME280;56085;48.910;9.478;2023-03-26T03:53:08;97395.81;;;7.30;72.41
36284;BME280;56085;48.910;9.478;2023-03-26T03:55:33;97396.53;;;7.27;72.49
36284;BME280;56085;48.910;9.478;2023-03-26T03:58:02;97400.06;;;7.08;72.58
36284;BME280;56085;48.910;9.478;2023-03-26T04:00:27;97393.47;;;6.93;73.59
36284;BME280;56085;48.910;9.478;2023-03-26T04:02:54;97391.63;;;6.81;73.77
36284;BME280;56085;48.910;9.478;2023-03-26T04:05:20;97387.22;;;6.76;73.80
36284;BME280;56085;48.910;9.478;2023-03-26T04:07:45;97373.75;;;6.71;74.72
36284;BME280;56085;48.910;9.478;2023-03-26T04:10:11;97376.06;;;6.69;74.88
36284;BME280;56085;48.910;9.478;2023-03-26T04:12:38;97376.84;;;6.70;75.14
36284;BME280;56085;48.910;9.478;2023-03-26T04:15:03;97374.03;;;6.66;75.15
36284;BME280;56085;48.910;9.478;2023-03-26T04:17:29;97376.34;;;6.64;75.05
36284;BME280;56085;48.910;9.478;2023-03-26T04:19:54;97377.50;;;6.63;75.44
36284;BME280;56085;48.910;9.478;2023-03-26T04:22:20;97371.56;;;6.61;75.63
36284;BME280;56085;48.910;9.478;2023-03-26T04:24:45;97369.09;;;6.56;75.56
36284;BME280;56085;48.910;9.478;2023-03-26T04:27:13;97358.72;;;6.49;75.79
36284;BME280;56085;48.910;9.478;2023-03-26T04:29:40;97351.75;;;6.52;76.83
36284;BME280;56085;48.910;9.478;2023-03-26T04:32:07;97347.75;;;6.49;75.98
36284;BME280;56085;48.910;9.478;2023-03-26T04:34:36;97339.44;;;6.45;76.70
36284;BME280;56085;48.910;9.478;2023-03-26T04:37:01;97329.97;;;6.43;76.64
36284;BME280;56085;48.910;9.478;2023-03-26T04:39:27;97334.16;;;6.37;77.46
36284;BME280;56085;48.910;9.478;2023-03-26T04:41:56;97324.84;;;6.25;77.66
36284;BME280;56085;48.910;9.478;2023-03-26T04:44:21;97317.69;;;6.21;78.02
36284;BME280;56085;48.910;9.478;2023-03-26T04:46:47;97309.09;;;6.22;78.06
36284;BME280;56085;48.910;9.478;2023-03-26T04:49:13;97309.53;;;6.24;78.32
36284;BME280;56085;48.910;9.478;2023-03-26T04:51:38;97308.03;;;6.27;78.59
36284;BME280;56085;48.910;9.478;2023-03-26T04:54:07;97307.56;;;6.25;78.73
36284;BME280;56085;48.910;9.478;2023-03-26T04:56:38;97299.69;;;6.23;78.98
36284;BME280;56085;48.910;9.478;2023-03-26T04:59:05;97293.06;;;6.24;78.59
36284;BME280;56085;48.910;9.478;2023-03-26T05:01:30;97301.75;;;6.26;79.08
36284;BME280;56085;48.910;9.478;2023-03-26T05:03:56;97281.00;;;6.29;79.05
36284;BME280;56085;48.910;9.478;2023-03-26T05:06:22;97278.25;;;6.29;79.48
36284;BME280;56085;48.910;9.478;2023-03-26T05:08:49;97267.38;;;6.33;78.97
36284;BME280;56085;48.910;9.478;2023-03-26T05:11:14;97268.16;;;6.33;78.94
36284;BME280;56085;48.910;9.478;2023-03-26T05:13:39;97259.66;;;6.38;79.56
36284;BME280;56085;48.910;9.478;2023-03-26T05:16:07;97263.25;;;6.42;79.57
36284;BME280;56085;48.910;9.478;2023-03-26T05:18:32;97258.22;;;6.44;79.21
36284;BME280;56085;48.910;9.478;2023-03-26T05:20:57;97258.28;;;6.48;79.35
36284;BME280;56085;48.910;9.478;2023-03-26T05:23:23;97261.47;;;6.50;79.15
36284;BME280;56085;48.910;9.478;2023-03-26T05:25:48;97259.97;;;6.53;78.52
36284;BME280;56085;48.910;9.478;2023-03-26T05:28:13;97263.19;;;6.58;78.46
36284;BME280;56085;48.910;9.478;2023-03-26T05:30:38;97258.53;;;6.59;79.00
36284;BME280;56085;48.910;9.478;2023-03-26T05:33:03;97262.84;;;6.60;79.03
36284;BME280;56085;48.910;9.478;2023-03-26T05:35:29;97262.00;;;6.56;79.30
36284;BME280;56085;48.910;9.478;2023-03-26T05:37:54;97254.69;;;6.63;78.79
36284;BME280;56085;48.910;9.478;2023-03-26T05:40:19;97254.75;;;6.67;79.01
36284;BME280;56085;48.910;9.478;2023-03-26T05:42:45;97245.50;;;6.75;78.99
36284;BME280;56085;48.910;9.478;2023-03-26T05:45:11;97243.69;;;6.83;78.28
36284;BME280;56085;48.910;9.478;2023-03-26T05:47:37;97226.97;;;6.92;78.41
36284;BME280;56085;48.910;9.478;2023-03-26T05:50:03;97229.09;;;6.98;78.23
36284;BME280;56085;48.910;9.478;2023-03-26T05:52:28;97227.72;;;7.08;78.13
36284;BME280;56085;48.910;9.478;2023-03-26T05:54:53;97222.69;;;7.14;77.58
36284;BME280;56085;48.910;9.478;2023-03-26T05:57:18;97227.47;;;7.17;77.78
36284;BME280;56085;48.910;9.478;2023-03-26T05:59:43;97221.25;;;7.20;77.17
36284;BME280;56085;48.910;9.478;2023-03-26T06:02:09;97226.44;;;7.25;77.17
36284;BME280;56085;48.910;9.478;2023-03-26T06:04:35;97214.31;;;7.30;77.16
36284;BME280;56085;48.910;9.478;2023-03-26T06:07:04;97214.03;;;7.35;77.11
36284;BME280;56085;48.910;9.478;2023-03-26T06:09:33;97206.16;;;7.33;77.11
36284;BME280;56085;48.910;9.478;2023-03-26T06:11:59;97189.28;;;7.35;76.65
36284;BME280;56085;48.910;9.478;2023-03-26T06:14:24;97191.66;;;7.37;76.26
36284;BME280;56085;48.910;9.478;2023-03-26T06:16:49;97186.59;;;7.39;76.91
36284;BME280;56085;48.910;9.478;2023-03-26T06:19:14;97183.44;;;7.37;76.34
36284;BME280;56085;48.910;9.478;2023-03-26T06:21:39;97175.53;;;7.35;76.65
36284;BME280;56085;48.910;9.478;2023-03-26T06:24:05;97175.47;;;7.31;76.51
36284;BME280;56085;48.910;9.478;2023-03-26T06:26:30;97186.06;;;7.29;76.64
36284;BME280;56085;48.910;9.478;2023-03-26T06:28:55;97180.50;;;7.26;77.09
36284;BME280;56085;48.910;9.478;2023-03-26T06:31:20;97182.81;;;7.24;76.49
36284;BME280;56085;48.910;9.478;2023-03-26T06:33:46;97189.47;;;7.23;76.69
36284;BME280;56085;48.910;9.478;2023-03-26T06:36:12;97175.28;;;7.21;76.82
36284;BME280;56085;48.910;9.478;2023-03-26T06:38:37;97157.28;;;7.23;76.22
36284;BME280;56085;48.910;9.478;2023-03-26T06:41:03;97144.81;;;7.29;76.42
36284;BME280;56085;48.910;9.478;2023-03-26T06:43:29;97138.16;;;7.30;76.76
36284;BME280;56085;48.910;9.478;2023-03-26T06:45:57;97133.94;;;7.37;76.97
36284;BME280;56085;48.910;9.478;2023-03-26T06:48:22;97124.94;;;7.40;76.62
36284;BME280;56085;48.910;9.478;2023-03-26T06:50:47;97121.03;;;7.41;76.65
36284;BME280;56085;48.910;9.478;2023-03-26T06:53:13;97119.06;;;7.41;76.75
36284;BME280;56085;48.910;9.478;2023-03-26T06:55:38;97112.91;;;7.48;76.20
36284;BME280;56085;48.910;9.478;2023-03-26T06:58:03;97106.69;;;7.55;76.59
36284;BME280;56085;48.910;9.478;2023-03-26T07:00:28;97105.88;;;7.50;76.47
36284;BME280;56085;48.910;9.478;2023-03-26T07:02:53;97106.22;;;7.49;76.43
36284;BME280;56085;48.910;9.478;2023-03-26T07:05:19;97100.00;;;7.52;76.13
36284;BME280;56085;48.910;9.478;2023-03-26T07:07:44;97101.25;;;7.58;76.39
36284;BME280;56085;48.910;9.478;2023-03-26T07:10:09;97098.44;;;7.55;76.40
36284;BME280;56085;48.910;9.478;2023-03-26T07:12:35;97092.56;;;7.56;75.56
36284;BME280;56085;48.910;9.478;2023-03-26T07:15:00;97094.78;;;7.47;75.69
36284;BME280;56085;48.910;9.478;2023-03-26T07:17:27;97092.78;;;7.44;75.28
36284;BME280;56085;48.910;9.478;2023-03-26T07:19:52;97096.75;;;7.46;75.56
36284;BME280;56085;48.910;9.478;2023-03-26T07:22:19;97087.28;;;7.44;75.37
36284;BME280;56085;48.910;9.478;2023-03-26T07:24:44;97078.44;;;7.31;75.00
36284;BME280;56085;48.910;9.478;2023-03-26T07:27:21;97070.53;;;7.26;75.39
36284;BME280;56085;48.910;9.478;2023-03-26T07:29:52;97076.06;;;7.29;75.16
36284;BME280;56085;48.910;9.478;2023-03-26T07:35:00;97063.06;;;7.26;75.08
36284;BME280;56085;48.910;9.478;2023-03-26T07:40:18;97048.66;;;7.33;75.39
36284;BME280;56085;48.910;9.478;2023-03-26T07:43:22;97048.69;;;7.37;75.26
36284;BME280;56085;48.910;9.478;2023-03-26T07:45:41;97039.75;;;7.43;75.09
36284;BME280;56085;48.910;9.478;2023-03-26T07:48:25;97029.13;;;7.42;74.82
36284;BME280;56085;48.910;9.478;2023-03-26T07:50:52;97030.28;;;7.41;74.18
36284;BME280;56085;48.910;9.478;2023-03-26T07:53:17;97026.31;;;7.38;74.28
36284;BME280;56085;48.910;9.478;2023-03-26T07:55:52;97030.22;;;7.37;73.78
36284;BME280;56085;48.910;9.478;2023-03-26T07:58:41;97042.81;;;7.38;74.01
36284;BME280;56085;48.910;9.478;2023-03-26T08:01:13;97049.06;;;7.35;74.18
36284;BME280;56085;48.910;9.478;2023-03-26T08:03:52;97043.84;;;7.30;74.21
36284;BME280;56085;48.910;9.478;2023-03-26T08:08:59;97029.75;;;7.31;73.46
36284;BME280;56085;48.910;9.478;2023-03-26T08:14:19;97038.06;;;7.35;74.40
36284;BME280;56085;48.910;9.478;2023-03-26T08:21:46;97026.53;;;7.26;75.68
36284;BME280;56085;48.910;9.478;2023-03-26T08:24:19;97025.69;;;7.22;75.19
36284;BME280;56085;48.910;9.478;2023-03-26T08:32:07;97022.22;;;7.28;76.78
36284;BME280;56085;48.910;9.478;2023-03-26T08:34:33;97003.00;;;7.28;77.13
36284;BME280;56085;48.910;9.478;2023-03-26T08:36:58;97002.25;;;7.31;77.61
36284;BME280;56085;48.910;9.478;2023-03-26T08:39:23;97006.22;;;7.34;77.49
36284;BME280;56085;48.910;9.478;2023-03-26T08:54:52;96987.78;;;7.34;79.05
36284;BME280;56085;48.910;9.478;2023-03-26T08:57:34;96987.44;;;7.40;78.98
36284;BME280;56085;48.910;9.478;2023-03-26T09:07:53;96962.69;;;7.40;79.66
36284;BME280;56085;48.910;9.478;2023-03-26T09:23:20;96968.94;;;7.67;80.96
36284;BME280;56085;48.910;9.478;2023-03-26T09:25:58;96969.53;;;7.83;80.91
36284;BME280;56085;48.910;9.478;2023-03-26T09:31:53;96964.88;;;7.91;80.99
36284;BME280;56085;48.910;9.478;2023-03-26T09:39:16;96985.34;;;7.90;81.32
36284;BME280;56085;48.910;9.478;2023-03-26T09:41:58;96993.59;;;7.90;81.62
36284;BME280;56085;48.910;9.478;2023-03-26T09:51:50;96943.88;;;8.51;82.00
36284;BME280;56085;48.910;9.478;2023-03-26T09:57:07;96943.22;;;8.68;82.03
36284;BME280;56085;48.910;9.478;2023-03-26T10:04:46;96937.47;;;8.88;82.17
36284;BME280;56085;48.910;9.478;2023-03-26T10:12:48;96943.72;;;8.81;82.06
36284;BME280;56085;48.910;9.478;2023-03-26T10:15:35;96950.50;;;8.91;82.31
36284;BME280;56085;48.910;9.478;2023-03-26T10:21:00;96942.50;;;9.38;81.93
36284;BME280;56085;48.910;9.478;2023-03-26T10:23:35;96936.66;;;9.57;82.20
36284;BME280;56085;48.910;9.478;2023-03-26T10:36:36;96925.88;;;10.62;80.68
36284;BME280;56085;48.910;9.478;2023-03-26T10:39:16;96927.41;;;11.06;80.15
36284;BME280;56085;48.910;9.478;2023-03-26T10:52:08;96945.00;;;11.74;77.27
36284;BME280;56085;48.910;9.478;2023-03-26T10:54:41;96927.47;;;12.09;76.42
36284;BME280;56085;48.910;9.478;2023-03-26T10:57:15;96926.59;;;12.23;75.65
36284;BME280;56085;48.910;9.478;2023-03-26T10:59:43;96925.19;;;11.93;74.75
36284;BME280;56085;48.910;9.478;2023-03-26T11:09:30;96927.72;;;11.48;71.53
36284;BME280;56085;48.910;9.478;2023-03-26T11:12:06;96936.22;;;11.90;71.12
36284;BME280;56085;48.910;9.478;2023-03-26T11:20:03;96915.03;;;12.84;70.21
36284;BME280;56085;48.910;9.478;2023-03-26T11:28:18;96904.56;;;12.57;67.35
36284;BME280;56085;48.910;9.478;2023-03-26T11:31:00;96901.22;;;12.77;66.36
36284;BME280;56085;48.910;9.478;2023-03-26T11:33:28;96900.22;;;13.02;65.58
36284;BME280;56085;48.910;9.478;2023-03-26T11:35:55;96898.41;;;13.22;64.46
36284;BME280;56085;48.910;9.478;2023-03-26T11:38:24;96891.28;;;13.59;63.90
36284;BME280;56085;48.910;9.478;2023-03-26T11:40:54;96886.63;;;14.11;63.40
36284;BME280;56085;48.910;9.478;2023-03-26T11:43:28;96890.84;;;14.46;62.50
36284;BME280;56085;48.910;9.478;2023-03-26T11:45:56;96877.78;;;14.20;61.37
36284;BME280;56085;48.910;9.478;2023-03-26T11:48:24;96881.13;;;14.62;60.22
36284;BME280;56085;48.910;9.478;2023-03-26T11:50:57;96886.75;;;14.55;59.34
36284;BME280;56085;48.910;9.478;2023-03-26T11:53:27;96867.06;;;14.18;58.59
36284;BME280;56085;48.910;9.478;2023-03-26T11:56:00;96874.91;;;14.23;57.82
36284;BME280;56085;48.910;9.478;2023-03-26T11:58:50;96866.53;;;14.00;57.18
36284;BME280;56085;48.910;9.478;2023-03-26T12:01:13;96865.38;;;13.97;56.15
36284;BME280;56085;48.910;9.478;2023-03-26T12:03:40;96860.31;;;13.61;55.73
36284;BME280;56085;48.910;9.478;2023-03-26T12:06:09;96863.84;;;13.27;55.64
36284;BME280;56085;48.910;9.478;2023-03-26T12:08:46;96878.13;;;12.91;54.79
36284;BME280;56085;48.910;9.478;2023-03-26T12:11:12;96867.28;;;12.62;54.85
36284;BME280;56085;48.910;9.478;2023-03-26T12:16:08;96907.69;;;12.07;55.69
36284;BME280;56085;48.910;9.478;2023-03-26T12:18:33;96889.09;;;12.60;56.39
36284;BME280;56085;48.910;9.478;2023-03-26T12:21:04;96898.09;;;12.75;57.04
36284;BME280;56085;48.910;9.478;2023-03-26T12:23:37;96892.00;;;13.29;57.52
36284;BME280;56085;48.910;9.478;2023-03-26T12:26:04;96892.00;;;13.29;57.31
36284;BME280;56085;48.910;9.478;2023-03-26T12:28:36;96887.72;;;12.83;57.73
36284;BME280;56085;48.910;9.478;2023-03-26T12:31:02;96896.09;;;12.27;57.96
36284;BME280;56085;48.910;9.478;2023-03-26T12:33:29;96910.13;;;11.91;58.31
36284;BME280;56085;48.910;9.478;2023-03-26T12:35:58;96912.69;;;11.52;58.82
36284;BME280;56085;48.910;9.478;2023-03-26T12:38:30;96925.78;;;11.34;59.11
36284;BME280;56085;48.910;9.478;2023-03-26T12:43:30;96902.31;;;11.71;60.22
36284;BME280;56085;48.910;9.478;2023-03-26T12:45:56;96899.09;;;11.83;60.49
36284;BME280;56085;48.910;9.478;2023-03-26T12:48:23;96889.16;;;12.53;61.11
36284;BME280;56085;48.910;9.478;2023-03-26T12:51:05;96886.88;;;12.89;61.14
36284;BME280;56085;48.910;9.478;2023-03-26T12:53:50;96880.09;;;13.94;60.94
36284;BME280;56085;48.910;9.478;2023-03-26T12:56:27;96871.56;;;14.08;60.33
36284;BME280;56085;48.910;9.478;2023-03-26T13:01:58;96866.69;;;14.91;58.79
36284;BME280;56085;48.910;9.478;2023-03-26T13:04:42;96856.72;;;14.70;58.04
36284;BME280;56085;48.910;9.478;2023-03-26T13:07:16;96861.44;;;14.73;57.51
36284;BME280;56085;48.910;9.478;2023-03-26T13:09:55;96845.53;;;14.97;57.15
36284;BME280;56085;48.910;9.478;2023-03-26T13:15:21;96850.81;;;15.92;55.97
36284;BME280;56085;48.910;9.478;2023-03-26T13:18:11;96828.56;;;17.03;55.38
36284;BME280;56085;48.910;9.478;2023-03-26T13:23:31;96879.38;;;21.13;53.07
36284;BME280;56085;48.910;9.478;2023-03-26T13:28:42;96760.34;;;27.55;50.85
36284;BME280;56085;48.910;9.478;2023-03-26T13:36:41;96797.06;;;17.32;47.79
36284;BME280;56085;48.910;9.478;2023-03-26T13:47:17;96775.06;;;16.75;45.40
36284;BME280;56085;48.910;9.478;2023-03-26T13:49:50;96797.94;;;15.68;45.21
36284;BME280;56085;48.910;9.478;2023-03-26T13:52:24;96804.56;;;19.12;44.90
36284;BME280;56085;48.910;9.478;2023-03-26T13:57:45;96782.00;;;16.38;44.50
36284;BME280;56085;48.910;9.478;2023-03-26T14:00:18;96783.97;;;16.54;44.43
36284;BME280;56085;48.910;9.478;2023-03-26T14:02:48;96776.22;;;16.45;44.54
36284;BME280;56085;48.910;9.478;2023-03-26T14:05:22;96781.88;;;16.58;44.23
36284;BME280;56085;48.910;9.478;2023-03-26T14:07:56;96773.06;;;17.35;44.04
36284;BME280;56085;48.910;9.478;2023-03-26T14:10:26;96753.22;;;16.57;43.96
36284;BME280;56085;48.910;9.478;2023-03-26T14:12:55;96809.19;;;18.71;43.48
36284;BME280;56085;48.910;9.478;2023-03-26T14:15:28;96749.13;;;16.91;43.53
36284;BME280;56085;48.910;9.478;2023-03-26T14:39:00;96746.88;;;13.59;44.33
36284;BME280;56085;48.910;9.478;2023-03-26T14:41:39;96750.38;;;13.33;44.52
36284;BME280;56085;48.910;9.478;2023-03-26T14:46:55;96750.16;;;12.54;45.00
36284;BME280;56085;48.910;9.478;2023-03-26T14:49:28;96758.19;;;12.38;45.10
36284;BME280;56085;48.910;9.478;2023-03-26T14:54:47;96756.91;;;12.04;45.93
36284;BME280;56085;48.910;9.478;2023-03-26T14:59:53;96767.44;;;11.72;46.38
36284;BME280;56085;48.910;9.478;2023-03-26T15:05:22;96797.28;;;11.39;46.96
36284;BME280;56085;48.910;9.478;2023-03-26T15:08:09;96801.03;;;10.99;47.40
36284;BME280;56085;48.910;9.478;2023-03-26T15:23:41;96843.53;;;9.22;52.72
36284;BME280;56085;48.910;9.478;2023-03-26T15:26:33;96835.19;;;9.11;53.43
36284;BME280;56085;48.910;9.478;2023-03-26T15:45:28;96868.22;;;8.41;58.34
36284;BME280;56085;48.910;9.478;2023-03-26T15:55:42;96870.81;;;8.19;61.18
36284;BME280;56085;48.910;9.478;2023-03-26T15:58:27;96869.00;;;7.97;61.90
36284;BME280;56085;48.910;9.478;2023-03-26T16:11:01;96877.75;;;7.31;65.39
36284;BME280;56085;48.910;9.478;2023-03-26T16:13:35;96878.47;;;7.24;66.08
36284;BME280;56085;48.910;9.478;2023-03-26T16:20:53;96866.34;;;7.29;67.96
36284;BME280;56085;48.910;9.478;2023-03-26T16:23:29;96867.09;;;7.26;68.63
36284;BME280;56085;48.910;9.478;2023-03-26T16:28:35;96872.53;;;7.22;69.88
36284;BME280;56085;48.910;9.478;2023-03-26T16:31:20;96870.22;;;7.24;70.33
36284;BME280;56085;48.910;9.478;2023-03-26T16:36:28;96882.84;;;7.29;71.64
36284;BME280;56085;48.910;9.478;2023-03-26T16:46:33;96891.69;;;7.15;73.23
36284;BME280;56085;48.910;9.478;2023-03-26T16:49:14;96897.25;;;7.19;73.74
36284;BME280;56085;48.910;9.478;2023-03-26T16:51:48;96905.84;;;7.17;73.96
36284;BME280;56085;48.910;9.478;2023-03-26T16:54:23;96916.75;;;7.10;73.86
36284;BME280;56085;48.910;9.478;2023-03-26T16:56:57;96922.66;;;7.12;73.92
36284;BME280;56085;48.910;9.478;2023-03-26T16:59:30;96928.53;;;7.10;74.06
36284;BME280;56085;48.910;9.478;2023-03-26T17:02:43;96929.75;;;7.13;74.38
36284;BME280;56085;48.910;9.478;2023-03-26T17:04:50;96932.81;;;7.08;74.48
36284;BME280;56085;48.910;9.478;2023-03-26T17:07:22;96932.31;;;7.02;74.60
36284;BME280;56085;48.910;9.478;2023-03-26T17:09:58;96926.34;;;6.96;74.42
36284;BME280;56085;48.910;9.478;2023-03-26T17:15:00;96934.88;;;6.88;74.86
36284;BME280;56085;48.910;9.478;2023-03-26T17:20:15;96942.69;;;6.86;74.72
36284;BME280;56085;48.910;9.478;2023-03-26T17:25:21;96944.56;;;6.78;74.49
36284;BME280;56085;48.910;9.478;2023-03-26T17:33:11;96946.22;;;6.59;74.85
36284;BME280;56085;48.910;9.478;2023-03-26T17:35:38;96944.69;;;6.62;74.93
36284;BME280;56085;48.910;9.478;2023-03-26T17:40:46;96943.44;;;6.56;75.11
36284;BME280;56085;48.910;9.478;2023-03-26T17:43:31;96940.59;;;6.52;76.09
36284;BME280;56085;48.910;9.478;2023-03-26T17:45:58;96940.56;;;6.49;75.64
36284;BME280;56085;48.910;9.478;2023-03-26T17:48:23;96939.75;;;6.48;76.12
36284;BME280;56085;48.910;9.478;2023-03-26T17:51:00;96950.69;;;6.44;76.59
36284;BME280;56085;48.910;9.478;2023-03-26T17:53:30;96948.72;;;6.45;77.00
36284;BME280;56085;48.910;9.478;2023-03-26T17:55:56;96943.56;;;6.40;76.99
36284;BME280;56085;48.910;9.478;2023-03-26T17:58:34;96947.09;;;6.40;76.67
36284;BME280;56085;48.910;9.478;2023-03-26T18:01:21;96945.19;;;6.44;77.18